Time;durP1;ratioP1;P1;durP2;ratioP2;P2;SDS_P1;SDS_P2;PMS_P1;PMS_P2;Temp;Humidity;BMP_temperature;BMP_pressure;BME280_temperature;BME280_humidity;BME280_pressure;Samples;Min_cycle;Max_cycle;Signal;HPM_P1;HPM_P2
2023/12/22 00:03:58;;;;;;;13.07;1.05;;;;;;;4.51;100.00;100175.91;5114949;28;20031;-84
2023/12/22 00:06:23;;;;;;;12.47;1.40;;;;;;;4.51;100.00;100164.34;5079961;28;20040;-85
2023/12/22 00:08:48;;;;;;;14.83;1.10;;;;;;;4.51;100.00;100159.78;5079873;28;20085;-84
2023/12/22 00:11:14;;;;;;;21.40;1.83;;;;;;;4.56;100.00;100180.69;5115587;28;20063;-85
2023/12/22 00:13:39;;;;;;;16.87;1.60;;;;;;;4.56;100.00;100151.13;5097297;28;20081;-85
2023/12/22 00:16:05;;;;;;;13.55;1.38;;;;;;;4.68;100.00;100149.63;5114738;28;20065;-85
2023/12/22 00:18:30;;;;;;;17.37;1.50;;;;;;;4.70;100.00;100152.09;5097026;28;20034;-85
2023/12/22 00:20:56;;;;;;;13.23;1.60;;;;;;;4.74;100.00;100180.25;5096715;28;20035;-84
2023/12/22 00:23:21;;;;;;;18.70;1.52;;;;;;;4.76;100.00;100182.75;5115435;28;20027;-84
2023/12/22 00:29:25;;;;;;;10.05;1.02;;;;;;;4.67;100.00;100199.00;5113491;28;20471;-84
2023/12/22 00:38:47;;;;;;;21.35;1.55;;;;;;;4.74;100.00;100199.91;5114399;28;20494;-85
2023/12/22 00:44:53;;;;;;;17.25;1.65;;;;;;;4.84;100.00;100201.41;5114549;28;20092;-84
2023/12/22 00:57:43;;;;;;;14.68;1.35;;;;;;;4.85;100.00;100216.53;5113186;27;20540;-85
2023/12/22 01:00:11;;;;;;;14.57;1.57;;;;;;;4.83;100.00;100221.28;5096096;28;20039;-85
2023/12/22 01:02:38;;;;;;;15.73;2.10;;;;;;;4.82;100.00;100203.47;5079427;28;20020;-85
2023/12/22 01:05:06;;;;;;;12.45;1.73;;;;;;;4.86;100.00;100210.13;5095597;28;20028;-85
2023/12/22 01:07:31;;;;;;;10.43;1.70;;;;;;;4.94;100.00;100218.06;5095837;28;20118;-85
2023/12/22 01:10:01;;;;;;;15.13;1.80;;;;;;;5.05;100.00;100219.41;5079419;28;20379;-85
2023/12/22 01:12:28;;;;;;;13.65;1.70;;;;;;;5.17;100.00;100222.38;5113927;28;20027;-85
2023/12/22 01:14:53;;;;;;;12.25;2.15;;;;;;;5.35;100.00;100200.38;5081094;28;20028;-85
2023/12/22 01:17:18;;;;;;;11.02;1.75;;;;;;;5.40;100.00;100214.03;5100192;28;20083;-85
2023/12/22 01:19:45;;;;;;;17.37;1.40;;;;;;;5.39;100.00;100207.84;5100632;28;20031;-85
2023/12/22 01:22:10;;;;;;;14.57;1.70;;;;;;;5.51;100.00;100207.31;5099969;28;20110;-85
2023/12/22 01:24:39;;;;;;;17.80;1.60;;;;;;;5.55;100.00;100200.47;5099932;28;20127;-85
2023/12/22 01:27:04;;;;;;;9.85;1.50;;;;;;;5.56;100.00;100229.88;5083764;28;20425;-85
2023/12/22 01:29:30;;;;;;;15.63;2.00;;;;;;;5.58;100.00;100237.75;5083202;28;20035;-85
2023/12/22 01:31:55;;;;;;;14.23;1.73;;;;;;;5.55;100.00;100230.94;5099947;28;20383;-85
2023/12/22 01:34:21;;;;;;;18.57;2.40;;;;;;;5.67;100.00;100246.50;5100137;28;20055;-86
2023/12/22 01:36:46;;;;;;;17.27;1.70;;;;;;;5.74;100.00;100244.69;5099880;28;20523;-85
2023/12/22 01:39:11;;;;;;;17.20;1.80;;;;;;;5.75;100.00;100228.34;5099715;28;20080;-85
2023/12/22 01:41:40;;;;;;;15.93;2.50;;;;;;;5.77;100.00;100231.69;5099636;28;20034;-85
2023/12/22 01:44:05;;;;;;;11.88;1.83;;;;;;;5.68;100.00;100227.47;5099553;28;20096;-85
2023/12/22 01:46:31;;;;;;;11.83;1.47;;;;;;;5.68;100.00;100224.78;5099415;28;20027;-85
2023/12/22 01:48:58;;;;;;;22.65;2.50;;;;;;;5.67;100.00;100230.34;5116251;28;20038;-85
2023/12/22 01:51:24;;;;;;;12.95;1.52;;;;;;;5.71;100.00;100234.31;5118018;28;20035;-85
2023/12/22 01:53:50;;;;;;;12.83;1.77;;;;;;;5.74;100.00;100239.31;5082361;28;20024;-85
2023/12/22 01:56:15;;;;;;;14.15;1.70;;;;;;;5.71;100.00;100253.97;5099096;28;20436;-85
2023/12/22 01:58:43;;;;;;;14.63;1.57;;;;;;;5.68;100.00;100246.31;5117969;28;20039;-85
2023/12/22 02:01:08;;;;;;;14.70;1.55;;;;;;;5.71;100.00;100251.28;5099325;28;20049;-85
2023/12/22 02:03:37;;;;;;;20.30;1.53;;;;;;;5.82;100.00;100263.38;5117821;28;20046;-85
2023/12/22 02:06:04;;;;;;;17.48;1.50;;;;;;;5.85;100.00;100246.00;5099503;28;20035;-85
2023/12/22 02:08:33;;;;;;;20.15;1.70;;;;;;;5.88;100.00;100265.28;5099450;28;20059;-85
2023/12/22 02:11:00;;;;;;;13.30;1.60;;;;;;;5.85;100.00;100272.94;5099057;28;20478;-85
2023/12/22 02:13:26;;;;;;;12.27;1.65;;;;;;;5.89;100.00;100255.31;5082095;28;20032;-85
2023/12/22 02:16:01;;;;;;;15.27;3.10;;;;;;;5.84;100.00;100253.22;5099052;28;20153;-85
2023/12/22 02:18:34;;;;;;;10.15;1.27;;;;;;;5.82;100.00;100241.84;5116992;28;20038;-85
2023/12/22 02:21:00;;;;;;;13.27;2.15;;;;;;;5.79;100.00;100231.47;5117219;28;20475;-86
2023/12/22 02:23:25;;;;;;;14.47;2.43;;;;;;;5.87;100.00;100241.25;5082316;28;20036;-86
2023/12/22 02:25:57;;;;;;;8.87;1.30;;;;;;;5.88;100.00;100238.34;5081966;28;20032;-86
2023/12/22 02:28:24;;;;;;;11.82;1.55;;;;;;;5.94;100.00;100226.78;5117689;28;20079;-85
2023/12/22 02:31:01;;;;;;;11.68;1.80;;;;;;;6.00;100.00;100270.13;5098588;28;20124;-86
2023/12/22 02:33:29;;;;;;;8.82;1.10;;;;;;;6.06;100.00;100255.88;5098982;28;20035;-85
2023/12/22 02:36:02;;;;;;;14.18;1.92;;;;;;;6.10;100.00;100284.06;5098506;28;20023;-85
2023/12/22 02:38:28;;;;;;;16.10;1.60;;;;;;;6.15;100.00;100277.03;5116905;28;20049;-86
2023/12/22 02:40:55;;;;;;;13.38;1.73;;;;;;;6.06;100.00;100305.16;5098696;28;20459;-86
2023/12/22 02:43:21;;;;;;;12.70;1.45;;;;;;;5.68;100.00;100324.38;5081947;28;20036;-85
2023/12/22 02:45:50;;;;;;;8.77;1.37;;;;;;;5.36;100.00;100274.66;5098572;28;20050;-86
2023/12/22 02:48:16;;;;;;;10.18;1.45;;;;;;;5.15;100.00;100272.84;5116878;28;20678;-86
2023/12/22 02:50:41;;;;;;;14.38;1.60;;;;;;;5.09;100.00;100269.91;5116352;28;20024;-85
2023/12/22 02:53:06;;;;;;;11.73;1.50;;;;;;;5.03;100.00;100270.66;5098804;28;20468;-86
2023/12/22 02:55:34;;;;;;;19.67;2.47;;;;;;;4.95;100.00;100284.25;5116751;28;20024;-85
2023/12/22 02:57:59;;;;;;;15.30;1.80;;;;;;;4.86;100.00;100253.97;5081239;28;20055;-85
2023/12/22 03:00:24;;;;;;;13.98;1.42;;;;;;;4.81;100.00;100248.31;5082137;28;20046;-85
2023/12/22 03:02:50;;;;;;;12.87;1.40;;;;;;;4.77;100.00;100240.84;5098583;28;20405;-86
2023/12/22 03:05:15;;;;;;;11.67;1.50;;;;;;;4.78;100.00;100254.09;5081185;28;20047;-85
2023/12/22 03:07:41;;;;;;;10.77;1.30;;;;;;;4.89;100.00;100244.69;5081010;28;20123;-86
2023/12/22 03:10:06;;;;;;;14.57;2.10;;;;;;;5.00;100.00;100235.28;5064782;28;20134;-86
2023/12/22 03:12:32;;;;;;;10.48;1.40;;;;;;;5.09;100.00;100245.69;5080833;28;20633;-86
2023/12/22 03:14:57;;;;;;;21.20;1.97;;;;;;;5.13;100.00;100239.94;5080980;28;20068;-85
2023/12/22 03:17:22;;;;;;;12.47;1.83;;;;;;;5.19;100.00;100237.28;5097861;28;20031;-86
2023/12/22 03:19:48;;;;;;;16.33;2.20;;;;;;;5.24;100.00;100231.31;5116657;28;20031;-85
2023/12/22 03:22:13;;;;;;;16.85;2.17;;;;;;;5.21;100.00;100240.63;5098171;28;20273;-86
2023/12/22 03:24:38;;;;;;;15.23;1.53;;;;;;;5.18;100.00;100232.09;5097997;28;20082;-85
2023/12/22 03:27:04;;;;;;;16.83;2.17;;;;;;;5.23;100.00;100216.22;5080721;28;20038;-86
2023/12/22 03:29:29;;;;;;;11.77;1.57;;;;;;;5.26;100.00;100229.28;5097605;28;20039;-86
2023/12/22 03:31:55;;;;;;;21.17;2.55;;;;;;;5.27;100.00;100223.69;5097596;28;20120;-85
2023/12/22 03:34:20;;;;;;;24.50;2.40;;;;;;;5.32;100.00;100224.97;5115836;28;20023;-86
2023/12/22 03:36:48;;;;;;;14.37;1.50;;;;;;;5.43;100.00;100237.88;5097181;28;20043;-86
2023/12/22 03:39:17;;;;;;;13.43;1.98;;;;;;;5.51;100.00;100224.28;5115939;28;20031;-85
2023/12/22 03:41:42;;;;;;;12.33;1.50;;;;;;;5.63;100.00;100249.59;5115637;28;20028;-86
2023/12/22 03:44:08;;;;;;;13.88;1.65;;;;;;;5.77;100.00;100225.44;5115799;28;20531;-85
2023/12/22 03:46:35;;;;;;;16.27;1.53;;;;;;;5.84;100.00;100238.94;5097030;28;20543;-85
2023/12/22 03:49:01;;;;;;;16.08;1.20;;;;;;;5.89;100.00;100218.47;5080798;28;20118;-86
2023/12/22 03:51:26;;;;;;;18.50;1.90;;;;;;;5.96;100.00;100226.56;5115144;28;20062;-86
2023/12/22 03:53:52;;;;;;;17.63;1.80;;;;;;;6.04;100.00;100247.13;5097011;28;20032;-86
2023/12/22 03:56:18;;;;;;;13.70;1.57;;;;;;;6.17;100.00;100258.00;5096554;28;20044;-86
2023/12/22 03:58:44;;;;;;;13.05;1.70;;;;;;;6.24;100.00;100231.06;5097059;28;20110;-86
2023/12/22 04:01:14;;;;;;;19.87;2.20;;;;;;;6.22;100.00;100235.84;5115577;28;20080;-87
2023/12/22 04:03:39;;;;;;;15.05;1.70;;;;;;;6.22;100.00;100228.59;5097134;28;20061;-87
2023/12/22 04:06:05;;;;;;;14.80;1.77;;;;;;;6.31;100.00;100246.22;5097219;28;20104;-87
2023/12/22 04:08:30;;;;;;;14.50;1.20;;;;;;;6.36;100.00;100253.69;5115256;28;20497;-87
2023/12/22 04:10:56;;;;;;;16.63;1.63;;;;;;;6.45;100.00;100267.81;5097129;28;20038;-87
2023/12/22 04:13:21;;;;;;;12.55;1.50;;;;;;;6.52;100.00;100249.81;5096123;28;20032;-87
2023/12/22 04:15:46;;;;;;;6.70;1.83;;;;;;;6.54;100.00;100249.59;5096639;28;20032;-87
2023/12/22 04:18:12;;;;;;;11.90;1.43;;;;;;;6.54;100.00;100261.22;5096656;28;20452;-87
2023/12/22 04:20:37;;;;;;;8.47;1.30;;;;;;;6.60;100.00;100271.19;5096609;28;20027;-87
2023/12/22 04:23:03;;;;;;;20.50;2.20;;;;;;;6.64;100.00;100261.69;5096257;28;20072;-87
2023/12/22 04:25:28;;;;;;;10.60;1.45;;;;;;;6.62;100.00;100261.03;5096542;28;20039;-86
2023/12/22 04:27:54;;;;;;;13.67;2.23;;;;;;;6.64;100.00;100242.81;5115043;28;20031;-87
2023/12/22 04:30:19;;;;;;;16.57;1.87;;;;;;;6.75;100.00;100267.50;5096416;28;20035;-87
2023/12/22 04:32:47;;;;;;;14.93;1.50;;;;;;;6.80;100.00;100273.91;5113093;28;20118;-87
2023/12/22 04:35:15;;;;;;;18.42;2.33;;;;;;;6.80;100.00;100265.00;5080004;28;20039;-87
2023/12/22 04:37:40;;;;;;;7.85;1.42;;;;;;;6.82;100.00;100277.25;5113286;28;20464;-87
2023/12/22 04:43:27;;;;;;;15.55;1.80;;;;;;;6.96;100.00;100296.16;5114274;28;20034;-88
2023/12/22 04:45:53;;;;;;;15.17;1.47;;;;;;;6.98;100.00;100278.75;5079381;28;20040;-87
2023/12/22 04:48:19;;;;;;;17.20;1.55;;;;;;;6.97;100.00;100278.94;5096816;28;20020;-87
2023/12/22 04:50:44;;;;;;;12.07;1.13;;;;;;;6.98;100.00;100275.19;5078807;28;20525;-87
2023/12/22 04:53:10;;;;;;;10.18;1.40;;;;;;;6.92;100.00;100279.53;5062587;28;20123;-87
2023/12/22 04:55:35;;;;;;;11.27;1.50;;;;;;;6.95;100.00;100295.34;5079709;28;20035;-87
2023/12/22 04:58:01;;;;;;;14.17;1.67;;;;;;;6.99;100.00;100266.91;5095870;28;20101;-87
2023/12/22 05:00:26;;;;;;;11.33;1.43;;;;;;;6.98;100.00;100277.91;5096057;28;20046;-87
2023/12/22 05:02:57;;;;;;;8.33;1.37;;;;;;;6.96;100.00;100288.88;5095933;28;20038;-87
2023/12/22 05:05:22;;;;;;;11.52;1.60;;;;;;;7.05;100.00;100292.22;5096823;28;20285;-87
2023/12/22 05:07:48;;;;;;;12.93;1.50;;;;;;;7.05;100.00;100297.63;5079376;28;20429;-87
2023/12/22 05:10:14;;;;;;;13.57;1.88;;;;;;;7.11;100.00;100310.28;5079221;28;20032;-88
2023/12/22 05:12:39;;;;;;;11.00;1.27;;;;;;;7.16;100.00;100301.56;5096058;28;20039;-87
2023/12/22 05:15:05;;;;;;;12.25;1.50;;;;;;;7.10;100.00;100294.28;5095942;28;20031;-87
2023/12/22 05:17:32;;;;;;;14.10;2.17;;;;;;;7.00;100.00;100286.63;5062068;28;20032;-87
2023/12/22 05:20:00;;;;;;;14.57;1.55;;;;;;;6.93;100.00;100258.81;5096201;28;20040;-87
2023/12/22 05:22:26;;;;;;;19.70;2.15;;;;;;;6.95;100.00;100281.00;5113923;28;20031;-87
2023/12/22 05:24:51;;;;;;;15.93;1.90;;;;;;;7.02;100.00;100287.25;5096064;28;20442;-87
2023/12/22 05:27:19;;;;;;;20.10;2.47;;;;;;;7.03;100.00;100295.13;5113717;28;20095;-87
2023/12/22 05:29:44;;;;;;;21.83;2.57;;;;;;;7.10;100.00;100305.09;5113950;28;20027;-87
2023/12/22 05:32:10;;;;;;;15.63;2.38;;;;;;;7.14;100.00;100296.38;5096257;28;20081;-87
2023/12/22 05:34:36;;;;;;;14.17;1.73;;;;;;;7.20;100.00;100302.81;5095570;28;20118;-87
2023/12/22 05:37:04;;;;;;;17.42;3.20;;;;;;;7.14;100.00;100299.06;5062173;28;20039;-87
2023/12/22 05:39:29;;;;;;;15.43;2.30;;;;;;;7.04;100.00;100322.91;5113936;28;20027;-87
2023/12/22 05:41:54;;;;;;;17.33;2.63;;;;;;;7.02;100.00;100287.25;5096103;28;20118;-87
2023/12/22 05:44:20;;;;;;;17.53;2.53;;;;;;;7.01;100.00;100296.34;5095414;28;20426;-87
2023/12/22 05:46:45;;;;;;;25.33;3.23;;;;;;;7.00;100.00;100298.25;5062099;28;20038;-87
2023/12/22 05:49:11;;;;;;;26.93;3.27;;;;;;;6.93;100.00;100305.47;5113921;28;20059;-87
2023/12/22 05:51:40;;;;;;;25.10;2.87;;;;;;;6.91;100.00;100295.94;5078449;28;20035;-87
2023/12/22 05:54:08;;;;;;;21.90;3.67;;;;;;;6.88;100.00;100299.88;5062416;28;20062;-87
2023/12/22 05:56:33;;;;;;;28.27;3.22;;;;;;;6.91;100.00;100285.13;5095382;28;20399;-87
2023/12/22 05:58:59;;;;;;;19.67;2.70;;;;;;;6.82;100.00;100288.03;5079036;28;20035;-87
2023/12/22 06:01:24;;;;;;;22.08;3.13;;;;;;;6.69;100.00;100296.09;5081178;28;20031;-87
2023/12/22 06:03:50;;;;;;;18.83;2.88;;;;;;;6.64;100.00;100285.09;5117464;28;20032;-87
2023/12/22 06:06:15;;;;;;;25.77;3.60;;;;;;;6.57;100.00;100279.69;5082725;28;20042;-87
2023/12/22 06:08:40;;;;;;;22.27;3.00;;;;;;;6.51;100.00;100275.13;5099233;28;20067;-87
2023/12/22 06:11:06;;;;;;;23.33;3.00;;;;;;;6.55;100.00;100302.47;5082338;28;20039;-87
2023/12/22 06:13:32;;;;;;;25.67;3.08;;;;;;;6.57;100.00;100281.53;5082175;28;20096;-87
2023/12/22 06:19:21;;;;;;;29.30;4.20;;;;;;;6.83;100.00;100267.28;5117096;28;20040;-87
2023/12/22 06:21:47;;;;;;;23.85;3.20;;;;;;;6.92;100.00;100282.22;5117208;28;20027;-87
2023/12/22 06:24:12;;;;;;;26.93;3.37;;;;;;;6.95;100.00;100265.66;5081969;28;20524;-87
2023/12/22 06:26:38;;;;;;;26.77;3.77;;;;;;;7.03;100.00;100270.03;5116785;28;20539;-87
2023/12/22 06:29:03;;;;;;;21.60;3.20;;;;;;;7.07;100.00;100263.19;5065321;28;20540;-87
2023/12/22 06:31:29;;;;;;;26.08;3.92;;;;;;;7.18;100.00;100269.81;5116980;28;20027;-87
2023/12/22 06:33:54;;;;;;;25.03;3.37;;;;;;;7.32;100.00;100278.75;5099220;28;20032;-87
2023/12/22 06:36:24;;;;;;;25.27;3.70;;;;;;;7.38;100.00;100286.84;5098576;28;20038;-87
2023/12/22 06:38:51;;;;;;;28.03;3.67;;;;;;;7.42;100.00;100276.44;5098285;28;20019;-87
2023/12/22 06:41:24;;;;;;;23.02;3.58;;;;;;;7.40;100.00;100289.34;5098194;28;20096;-85
2023/12/22 06:43:50;;;;;;;27.17;4.38;;;;;;;7.33;100.00;100285.81;5082116;28;20032;-85
2023/12/22 06:46:22;;;;;;;32.45;4.10;;;;;;;7.26;100.00;100295.75;5116686;28;20040;-86
2023/12/22 06:48:53;;;;;;;32.95;3.88;;;;;;;7.24;100.00;100300.56;5098708;28;20446;-86
2023/12/22 06:51:20;;;;;;;30.77;4.53;;;;;;;7.32;100.00;100281.44;5099370;28;20027;-85
2023/12/22 06:53:46;;;;;;;23.88;4.30;;;;;;;7.37;100.00;100284.34;5098541;28;20031;-85
2023/12/22 06:56:27;;;;;;;31.98;3.50;;;;;;;7.47;100.00;100310.91;5099384;27;20039;-86
2023/12/22 07:03:01;;;;;;;28.00;3.97;;;;;;;7.54;100.00;100303.66;5116554;28;20038;-85
2023/12/22 07:09:12;;;;;;;28.85;3.65;;;;;;;7.61;100.00;100285.56;5116161;28;20038;-85
2023/12/22 07:15:11;;;;;;;20.88;3.55;;;;;;;7.68;100.00;100282.88;5116258;28;20088;-86
2023/12/22 07:20:59;;;;;;;25.07;3.77;;;;;;;7.71;100.00;100304.06;5116506;28;20038;-85
2023/12/22 07:26:51;;;;;;;25.25;3.40;;;;;;;7.73;100.00;100300.09;5115731;28;20096;-85
2023/12/22 07:32:45;;;;;;;30.52;3.75;;;;;;;7.77;100.00;100270.81;5116179;28;20043;-85
2023/12/22 07:38:32;;;;;;;23.00;3.50;;;;;;;7.86;100.00;100293.03;5115582;28;20062;-85
2023/12/22 07:40:58;;;;;;;28.23;3.85;;;;;;;7.83;100.00;100285.34;5116255;28;20063;-85
2023/12/22 07:43:38;;;;;;;30.27;4.88;;;;;;;7.82;100.00;100284.50;5080795;28;20083;-85
2023/12/22 07:46:03;;;;;;;27.83;3.80;;;;;;;7.80;100.00;100275.78;5081918;28;20054;-86
2023/12/22 07:48:29;;;;;;;28.77;3.90;;;;;;;7.78;100.00;100280.56;5097120;28;20057;-85
2023/12/22 07:50:54;;;;;;;30.40;3.70;;;;;;;7.75;100.00;100267.50;5080266;28;20390;-85
2023/12/22 07:53:21;;;;;;;31.73;3.47;;;;;;;7.77;100.00;100276.22;5079834;28;20118;-85
2023/12/22 07:55:46;;;;;;;24.90;3.88;;;;;;;7.85;100.00;100283.25;5097060;28;20123;-84
2023/12/22 07:58:12;;;;;;;20.00;2.60;;;;;;;7.87;100.00;100289.28;5096632;28;20146;-85
2023/12/22 08:00:38;;;;;;;25.42;3.45;;;;;;;7.87;100.00;100262.28;5115267;28;20019;-86
2023/12/22 08:03:04;;;;;;;26.53;3.53;;;;;;;7.96;100.00;100285.31;5096175;28;20398;-85
2023/12/22 08:05:33;;;;;;;22.80;3.28;;;;;;;7.92;100.00;100278.66;5098378;28;20089;-85
2023/12/22 08:07:58;;;;;;;22.70;3.65;;;;;;;7.97;100.00;100276.19;5096912;28;20031;-85
2023/12/22 08:10:24;;;;;;;22.10;2.72;;;;;;;7.97;100.00;100273.47;5079725;28;20080;-85
2023/12/22 08:12:49;;;;;;;25.23;3.03;;;;;;;8.02;100.00;100305.25;5096566;28;20077;-85
2023/12/22 08:15:15;;;;;;;24.13;3.70;;;;;;;7.99;100.00;100284.06;5096669;28;20032;-85
2023/12/22 08:17:48;;;;;;;19.70;2.97;;;;;;;8.09;100.00;100284.44;5080545;28;20023;-85
2023/12/22 08:20:18;;;;;;;18.53;2.83;;;;;;;8.12;100.00;100285.88;5096777;28;20048;-85
2023/12/22 08:22:48;;;;;;;18.63;3.13;;;;;;;8.00;100.00;100277.59;5114772;28;20039;-85
2023/12/22 08:25:14;;;;;;;23.67;3.47;;;;;;;8.07;100.00;100286.53;5096462;28;20027;-85
2023/12/22 08:27:39;;;;;;;19.95;2.63;;;;;;;8.06;100.00;100263.22;5096632;28;20032;-85
2023/12/22 08:30:06;;;;;;;17.90;2.33;;;;;;;8.09;100.00;100295.25;5096588;28;20040;-85
2023/12/22 08:32:31;;;;;;;20.67;2.50;;;;;;;8.12;100.00;100277.78;5096990;28;20123;-90
2023/12/22 08:34:57;;;;;;;14.70;2.47;;;;;;;8.07;100.00;100265.75;5079404;28;20035;-86
2023/12/22 08:37:22;;;;;;;15.37;2.27;;;;;;;8.06;100.00;100283.00;5096066;28;20035;-85
2023/12/22 08:39:48;;;;;;;14.63;2.53;;;;;;;8.08;100.00;100285.47;5097113;28;20035;-86
2023/12/22 08:42:14;;;;;;;14.13;2.10;;;;;;;8.12;100.00;100266.97;5092962;28;20024;-86
2023/12/22 08:44:39;;;;;;;10.77;1.77;;;;;;;8.07;100.00;100265.75;5092873;28;20039;-86
2023/12/22 08:47:05;;;;;;;13.20;1.97;;;;;;;8.14;100.00;100271.13;5095518;28;20158;-85
2023/12/22 08:49:30;;;;;;;10.97;1.60;;;;;;;8.16;100.00;100279.00;5096171;28;20035;-85
2023/12/22 08:51:56;;;;;;;11.45;1.55;;;;;;;8.18;100.00;100280.47;5079102;28;20036;-86
2023/12/22 08:54:21;;;;;;;20.87;2.40;;;;;;;8.00;100.00;100266.78;5095961;28;20383;-86
2023/12/22 08:56:47;;;;;;;16.17;1.93;;;;;;;7.82;100.00;100275.56;5113487;28;20070;-86
2023/12/22 08:59:12;;;;;;;13.97;1.93;;;;;;;7.67;100.00;100265.00;5096168;28;20027;-86
2023/12/22 09:01:38;;;;;;;8.70;1.40;;;;;;;7.61;100.00;100255.06;5078893;28;20042;-87
2023/12/22 09:04:03;;;;;;;9.73;1.50;;;;;;;7.61;100.00;100261.28;5096036;28;20067;-86
2023/12/22 09:06:29;;;;;;;9.60;1.70;;;;;;;7.72;100.00;100262.50;5079204;28;20051;-86
2023/12/22 09:08:55;;;;;;;5.37;0.90;;;;;;;7.74;100.00;100257.72;5112405;28;20092;-86
2023/12/22 09:11:21;;;;;;;11.00;1.67;;;;;;;7.84;100.00;100254.56;5114483;28;20367;-86
2023/12/22 09:13:47;;;;;;;8.32;1.30;;;;;;;7.93;100.00;100263.28;5114501;28;20040;-85
2023/12/22 09:16:15;;;;;;;8.50;1.30;;;;;;;7.96;100.00;100255.59;5095584;28;20380;-86
2023/12/22 09:18:42;;;;;;;6.68;0.90;;;;;;;7.99;100.00;100248.94;5096581;28;20039;-85
2023/12/22 09:21:08;;;;;;;7.38;0.80;;;;;;;7.95;100.00;100269.31;5095866;28;20487;-86
2023/12/22 09:23:33;;;;;;;8.73;1.07;;;;;;;8.00;100.00;100253.28;5095903;28;20044;-85
2023/12/22 09:25:58;;;;;;;9.77;1.17;;;;;;;8.05;100.00;100264.31;5095747;28;20062;-85
2023/12/22 09:28:25;;;;;;;6.28;0.80;;;;;;;8.11;100.00;100265.31;5096269;28;20414;-85
2023/12/22 09:30:50;;;;;;;8.52;0.70;;;;;;;8.24;100.00;100259.88;5095685;28;20478;-86
2023/12/22 09:33:16;;;;;;;8.80;1.27;;;;;;;8.24;100.00;100240.94;5078794;28;20112;-85
2023/12/22 09:35:42;;;;;;;5.23;0.70;;;;;;;8.33;100.00;100245.06;5115965;28;20037;-85
2023/12/22 09:38:12;;;;;;;4.82;0.60;;;;;;;8.46;100.00;100251.47;5100062;28;20028;-85
2023/12/22 09:40:38;;;;;;;8.30;0.80;;;;;;;8.46;100.00;100224.41;5083096;28;20023;-85
2023/12/22 09:43:06;;;;;;;7.07;0.70;;;;;;;8.50;100.00;100236.47;5099395;28;20028;-85
2023/12/22 09:45:35;;;;;;;4.88;0.70;;;;;;;8.61;100.00;100254.72;5117402;28;20111;-85
2023/12/22 09:48:01;;;;;;;8.38;0.88;;;;;;;8.60;100.00;100239.53;5099312;28;20023;-85
2023/12/22 09:50:28;;;;;;;3.13;0.57;;;;;;;8.64;100.00;100248.06;5099311;28;20032;-85
2023/12/22 09:52:54;;;;;;;5.00;0.70;;;;;;;8.66;100.00;100233.25;5099702;28;20483;-85
2023/12/22 09:55:22;;;;;;;5.82;0.73;;;;;;;8.67;100.00;100242.22;5099043;28;20035;-85
2023/12/22 09:57:49;;;;;;;4.85;0.60;;;;;;;8.65;100.00;100257.81;5098981;28;20464;-85
2023/12/22 10:00:15;;;;;;;5.03;0.75;;;;;;;8.59;100.00;100240.56;5099523;28;20042;-85
2023/12/22 10:02:42;;;;;;;9.25;1.23;;;;;;;8.71;100.00;100229.88;5117320;28;20031;-85
2023/12/22 10:05:09;;;;;;;6.40;1.05;;;;;;;8.77;100.00;100232.56;5082769;28;20028;-85
2023/12/22 10:07:35;;;;;;;4.10;0.55;;;;;;;8.93;100.00;100233.91;5083018;28;20472;-85
2023/12/22 10:10:03;;;;;;;5.27;0.80;;;;;;;8.99;100.00;100229.50;5117503;28;20028;-85
2023/12/22 10:12:30;;;;;;;6.68;0.75;;;;;;;9.10;100.00;100236.06;5099051;28;20078;-85
2023/12/22 10:14:59;;;;;;;11.63;1.33;;;;;;;9.17;100.00;100241.41;5098962;28;20035;-85
2023/12/22 10:17:25;;;;;;;2.70;0.70;;;;;;;9.21;100.00;100226.38;5099278;28;20102;-85
2023/12/22 10:19:51;;;;;;;5.72;1.02;;;;;;;9.26;100.00;100248.22;5099299;28;20042;-85
2023/12/22 10:22:17;;;;;;;5.75;0.55;;;;;;;9.29;100.00;100236.94;5098898;28;20487;-85
2023/12/22 10:24:50;;;;;;;9.60;1.52;;;;;;;9.27;100.00;100225.50;5099707;28;20085;-85
2023/12/22 10:27:23;;;;;;;4.63;0.80;;;;;;;9.35;100.00;100276.66;5099143;28;20475;-85
2023/12/22 10:29:56;;;;;;;4.63;0.88;;;;;;;9.32;100.00;100230.28;5082981;28;20059;-85
2023/12/22 10:32:26;;;;;;;5.25;0.85;;;;;;;9.35;100.00;100260.44;5098627;28;20042;-85
2023/12/22 10:34:52;;;;;;;5.25;1.00;;;;;;;9.32;100.00;100243.81;5098712;28;20450;-84
2023/12/22 10:37:18;;;;;;;8.10;1.08;;;;;;;9.39;100.00;100237.28;5099381;28;20093;-85
2023/12/22 10:39:48;;;;;;;5.77;0.90;;;;;;;9.33;100.00;100246.28;5098787;28;20036;-85
2023/12/22 10:42:14;;;;;;;4.53;1.05;;;;;;;9.35;100.00;100260.44;5098647;28;20050;-85
2023/12/22 10:44:41;;;;;;;5.40;1.33;;;;;;;9.41;100.00;100242.47;5116386;28;20462;-85
2023/12/22 10:47:07;;;;;;;4.20;1.10;;;;;;;9.46;100.00;100264.28;5080633;28;20123;-85
2023/12/22 10:49:33;;;;;;;5.53;0.77;;;;;;;9.41;100.00;100218.91;5099128;28;20065;-85
2023/12/22 10:51:59;;;;;;;5.82;1.08;;;;;;;9.44;100.00;100245.53;5081040;28;20288;-85
2023/12/22 10:54:25;;;;;;;4.60;0.75;;;;;;;9.47;100.00;100238.88;5098478;28;20039;-85
2023/12/22 10:56:52;;;;;;;5.37;0.70;;;;;;;9.52;100.00;100262.56;5097833;28;20043;-85
2023/12/22 10:59:27;;;;;;;3.95;0.77;;;;;;;9.58;100.00;100258.97;5098492;28;20155;-85
2023/12/22 11:01:56;;;;;;;4.90;0.70;;;;;;;9.61;100.00;100237.69;5098842;28;20036;-85
2023/12/22 11:04:25;;;;;;;6.10;0.80;;;;;;;9.58;100.00;100267.09;5098168;28;20031;-85
2023/12/22 11:06:55;;;;;;;3.13;0.50;;;;;;;9.65;100.00;100247.03;5097723;28;20110;-85
2023/12/22 11:09:23;;;;;;;7.72;0.60;;;;;;;9.58;100.00;100221.88;5097380;28;20036;-84
2023/12/22 11:11:53;;;;;;;7.10;0.70;;;;;;;9.61;100.00;100258.50;5097990;28;20033;-85
2023/12/22 11:14:19;;;;;;;7.10;0.93;;;;;;;9.69;100.00;100222.19;5115903;28;20055;-85
2023/12/22 11:16:48;;;;;;;6.70;1.10;;;;;;;9.69;100.00;100228.44;5115812;28;20019;-85
2023/12/22 11:19:18;;;;;;;9.27;1.30;;;;;;;9.74;100.00;100227.75;5098244;28;20023;-85
2023/12/22 11:21:45;;;;;;;4.90;0.60;;;;;;;9.76;100.00;100234.63;5115766;28;20027;-84
2023/12/22 11:24:13;;;;;;;5.15;0.80;;;;;;;9.81;100.00;100226.63;5115809;28;20367;-84
2023/12/22 11:26:42;;;;;;;5.45;0.88;;;;;;;9.79;100.00;100233.34;5097247;28;20523;-84
2023/12/22 11:29:09;;;;;;;4.25;0.73;;;;;;;9.79;100.00;100230.63;5115812;28;20110;-84
2023/12/22 11:31:37;;;;;;;7.77;0.90;;;;;;;9.68;100.00;100229.47;5115704;28;20375;-84
2023/12/22 11:34:04;;;;;;;5.07;0.85;;;;;;;9.58;100.00;100221.03;5098170;28;20028;-85
2023/12/22 11:36:31;;;;;;;5.32;0.90;;;;;;;9.61;100.00;100244.97;5097276;28;20114;-85
2023/12/22 11:38:57;;;;;;;4.80;0.80;;;;;;;9.67;100.00;100244.09;5097508;28;20130;-85
2023/12/22 11:41:30;;;;;;;5.88;0.80;;;;;;;9.74;100.00;100214.22;5097304;28;20024;-85
2023/12/22 11:43:58;;;;;;;3.20;0.70;;;;;;;9.83;100.00;100223.69;5116128;28;20409;-85
2023/12/22 11:46:24;;;;;;;4.10;0.80;;;;;;;9.84;100.00;100218.03;5097107;28;20042;-86
2023/12/22 11:48:52;;;;;;;5.45;0.68;;;;;;;9.88;100.00;100225.75;5079818;28;20028;-85
2023/12/22 11:51:18;;;;;;;6.93;0.80;;;;;;;9.92;100.00;100192.53;5115320;28;20110;-85
2023/12/22 11:53:44;;;;;;;3.95;0.90;;;;;;;9.92;100.00;100199.81;5097764;28;20039;-85
2023/12/22 11:56:12;;;;;;;5.82;0.60;;;;;;;9.91;100.00;100206.31;5097718;28;20045;-85
2023/12/22 11:58:53;;;;;;;4.60;1.00;;;;;;;9.84;100.00;100196.38;5096389;28;20387;-85
2023/12/22 12:01:21;;;;;;;6.70;1.00;;;;;;;9.91;100.00;100206.31;5115544;28;20088;-89
2023/12/22 12:04:03;;;;;;;4.25;0.70;;;;;;;9.77;100.00;100208.34;5096652;28;20494;-85
2023/12/22 12:06:29;;;;;;;6.10;1.02;;;;;;;9.68;100.00;100204.28;5097577;28;20038;-85
2023/12/22 12:08:55;;;;;;;5.83;0.90;;;;;;;9.55;100.00;100203.38;5096942;28;20036;-85
2023/12/22 12:11:22;;;;;;;7.30;1.08;;;;;;;9.58;100.00;100219.19;5096984;28;20042;-85
2023/12/22 12:13:48;;;;;;;2.58;0.50;;;;;;;9.55;100.00;100246.72;5096886;28;20071;-87
2023/12/22 12:16:18;;;;;;;6.50;0.80;;;;;;;9.59;100.00;100215.41;5096775;28;20078;-85